Terminal Aerodrome Forecast
Issued by NWS

Home | Current Version | Previous Version | Text Only | Print | Product List | Glossary On
Versions: 1 2 3 4 5 6 7 8 9 10 11 12 13 14 15
381
FTUS41 KLWX 282333
TAFMTN
TAF
KMTN 282333Z 2900/2924 09012G18KT P6SM OVC020
     FM290100 09013G20KT 3SM +SHRA VCTS OVC020CB
     FM290400 09014G21KT 2SM +SHRA VCTS OVC010CB
     FM290600 09013KT 3SM SHRA OVC008
     FM291800 08014G22KT 1 1/2SM SHRA OVC008
      AMD NOT SKED 2902/2912=

USA.gov is the U.S. government's official web portal to all federal, state and local government web resources and services.